createdAt,value
2023-03-17T00:00:47.735Z,8.02
2023-03-17T00:03:29.953Z,8.80
2023-03-17T00:06:00.198Z,7.22
2023-03-17T00:08:31.916Z,8.75
2023-03-17T00:11:00.874Z,7.20
2023-03-17T00:13:31.108Z,10.13
2023-03-17T00:16:22.344Z,12.95
2023-03-17T00:18:51.860Z,6.78
2023-03-17T00:21:28.985Z,8.32
2023-03-17T00:23:58.344Z,8.45
2023-03-17T00:26:27.003Z,7.20
2023-03-17T00:28:55.639Z,7.32
2023-03-17T00:31:29.804Z,7.18
2023-03-17T00:33:58.621Z,5.75
2023-03-17T00:36:29.684Z,9.80
2023-03-17T00:39:07.521Z,6.20
2023-03-17T00:41:35.440Z,5.43
2023-03-17T00:44:03.686Z,2.63
2023-03-17T00:46:36.291Z,6.25
2023-03-17T00:49:20.191Z,5.75
2023-03-17T00:51:48.956Z,5.30
2023-03-17T00:54:18.126Z,6.65
2023-03-17T00:56:46.534Z,3.38
2023-03-17T00:59:30.221Z,5.13
2023-03-17T01:01:58.515Z,4.13
2023-03-17T01:04:26.560Z,3.28
2023-03-17T01:06:54.861Z,7.85
2023-03-17T01:09:26.639Z,6.88
2023-03-17T01:11:55.875Z,14.00
2023-03-17T01:14:25.063Z,5.35
2023-03-17T01:16:53.664Z,6.80
2023-03-17T01:19:22.373Z,4.85
2023-03-17T01:21:50.515Z,9.68
2023-03-17T01:24:18.769Z,5.97
2023-03-17T01:26:47.029Z,5.78
2023-03-17T01:29:16.684Z,5.50
2023-03-17T01:31:46.412Z,5.20
2023-03-17T01:34:14.403Z,6.97
2023-03-17T01:36:43.483Z,5.28
2023-03-17T01:39:11.372Z,6.68
2023-03-17T01:41:40.418Z,5.32
2023-03-17T01:46:42.197Z,5.53
2023-03-17T01:49:17.320Z,8.00
2023-03-17T01:52:01.718Z,6.63
2023-03-17T01:54:35.778Z,6.13
2023-03-17T01:57:18.886Z,7.07
2023-03-17T01:59:53.641Z,6.47
2023-03-17T02:02:31.082Z,5.20
2023-03-17T02:04:59.411Z,6.93
2023-03-17T02:07:28.459Z,5.30
2023-03-17T02:09:58.290Z,3.92
2023-03-17T02:12:29.264Z,5.32
2023-03-17T02:14:58.324Z,7.90
2023-03-17T02:17:29.224Z,10.65
2023-03-17T02:19:57.123Z,5.88
2023-03-17T02:22:25.372Z,6.50
2023-03-17T02:24:59.737Z,6.97
2023-03-17T02:27:35.031Z,5.78
2023-03-17T02:30:04.059Z,8.13
2023-03-17T02:32:36.409Z,5.80
2023-03-17T02:35:05.797Z,6.13
2023-03-17T02:37:34.107Z,6.15
2023-03-17T02:40:02.883Z,5.93
2023-03-17T02:42:30.802Z,6.03
2023-03-17T02:44:59.843Z,6.57
2023-03-17T02:47:27.895Z,5.60
2023-03-17T02:49:55.938Z,6.47
2023-03-17T02:52:23.929Z,5.25
2023-03-17T02:57:00.915Z,3.55
2023-03-17T03:01:56.724Z,3.13
2023-03-17T03:04:24.864Z,4.00
2023-03-17T03:06:52.881Z,3.53
2023-03-17T03:09:21.694Z,2.75
2023-03-17T03:11:49.573Z,3.70
2023-03-17T03:14:17.589Z,3.65
2023-03-17T03:16:47.114Z,3.75
2023-03-17T03:19:15.028Z,6.03
2023-03-17T03:21:43.095Z,5.07
2023-03-17T03:24:11.263Z,3.65
2023-03-17T03:26:39.204Z,3.88
2023-03-17T03:29:07.141Z,4.45
2023-03-17T03:31:35.427Z,4.35
2023-03-17T03:34:03.502Z,5.88
2023-03-17T03:36:32.532Z,5.07
2023-03-17T03:39:01.427Z,4.53
2023-03-17T03:41:29.588Z,4.93
2023-03-17T03:43:57.493Z,5.70
2023-03-17T03:46:26.849Z,4.63
2023-03-17T03:51:23.044Z,2.90
2023-03-17T03:53:50.879Z,2.95
2023-03-17T03:56:18.878Z,2.83
2023-03-17T03:58:47.225Z,11.55
2023-03-17T04:01:17.541Z,9.13
2023-03-17T04:03:47.523Z,6.18
2023-03-17T04:06:16.441Z,4.47
2023-03-17T04:08:44.203Z,5.80
2023-03-17T04:11:12.200Z,11.73
2023-03-17T04:13:40.204Z,5.72
2023-03-17T04:16:08.647Z,4.57
2023-03-17T04:18:36.615Z,4.30
2023-03-17T04:21:06.677Z,4.45
2023-03-17T04:23:34.794Z,4.32
2023-03-17T04:26:04.352Z,4.47
2023-03-17T04:28:34.373Z,4.47
2023-03-17T04:31:02.515Z,7.38
2023-03-17T04:33:30.587Z,5.68
2023-03-17T04:35:58.806Z,4.65
2023-03-17T04:38:26.940Z,3.28
2023-03-17T04:41:00.929Z,3.10
2023-03-17T04:43:29.144Z,4.90
2023-03-17T04:45:57.162Z,4.63
2023-03-17T04:48:25.211Z,5.43
2023-03-17T04:50:53.365Z,4.75
2023-03-17T04:53:21.318Z,7.22
2023-03-17T04:55:49.326Z,4.70
2023-03-17T04:58:29.966Z,4.38
2023-03-17T05:00:59.683Z,5.43
2023-03-17T05:03:28.631Z,9.48
2023-03-17T05:06:00.040Z,27.70
2023-03-17T05:08:28.684Z,23.33
2023-03-17T05:10:57.584Z,10.68
2023-03-17T05:13:27.433Z,11.98
2023-03-17T05:15:56.472Z,16.38
2023-03-17T05:18:25.808Z,23.52
2023-03-17T05:20:54.704Z,9.60
2023-03-17T05:23:23.340Z,8.55
2023-03-17T05:25:51.472Z,14.43
2023-03-17T05:28:21.230Z,9.13
2023-03-17T05:30:49.760Z,8.23
2023-03-17T05:33:17.905Z,16.20
2023-03-17T05:35:46.811Z,4.80
2023-03-17T05:38:16.315Z,27.35
2023-03-17T05:40:44.939Z,24.42
2023-03-17T05:43:14.230Z,13.48
2023-03-17T05:45:42.609Z,8.88
2023-03-17T05:48:12.539Z,4.57
2023-03-17T05:50:41.917Z,4.75
2023-03-17T05:55:38.096Z,23.10
2023-03-17T05:58:06.754Z,24.60
2023-03-17T06:00:35.851Z,11.38
2023-03-17T06:03:05.114Z,9.82
2023-03-17T06:05:33.267Z,12.65
2023-03-17T06:08:02.245Z,11.63
2023-03-17T06:10:30.519Z,14.25
2023-03-17T06:12:59.256Z,12.98
2023-03-17T06:15:29.377Z,12.07
2023-03-17T06:17:57.564Z,12.38
2023-03-17T06:20:26.024Z,7.72
2023-03-17T06:23:04.019Z,7.68
2023-03-17T06:25:35.160Z,8.63
2023-03-17T06:28:05.778Z,5.75
2023-03-17T06:30:35.110Z,10.40
2023-03-17T06:33:04.088Z,8.07
2023-03-17T06:35:33.822Z,9.57
2023-03-17T06:38:03.733Z,6.80
2023-03-17T06:40:32.468Z,6.43
2023-03-17T06:43:01.493Z,7.15
2023-03-17T06:45:29.809Z,6.28
2023-03-17T06:47:58.053Z,7.40
2023-03-17T06:50:26.232Z,8.50
2023-03-17T06:52:54.371Z,6.47
2023-03-17T06:55:23.449Z,7.05
2023-03-17T06:57:51.562Z,4.88
2023-03-17T07:00:21.248Z,5.72
2023-03-17T07:02:49.908Z,6.28
2023-03-17T07:05:18.138Z,22.33
2023-03-17T07:07:46.542Z,15.30
2023-03-17T07:10:16.048Z,11.75
2023-03-17T07:12:44.960Z,11.00
2023-03-17T07:15:13.243Z,8.98
2023-03-17T07:17:47.059Z,6.68
2023-03-17T07:20:15.252Z,9.75
2023-03-17T07:22:43.170Z,7.45
2023-03-17T07:25:11.276Z,7.65
2023-03-17T07:27:39.662Z,7.97
2023-03-17T07:30:08.226Z,5.32
2023-03-17T07:32:36.547Z,10.65
2023-03-17T07:35:05.528Z,9.73
2023-03-17T07:37:33.623Z,6.82
2023-03-17T07:40:01.800Z,8.38
2023-03-17T07:42:30.362Z,4.38
2023-03-17T07:44:58.605Z,4.97
2023-03-17T07:47:26.548Z,7.97
2023-03-17T07:49:55.178Z,6.88
2023-03-17T07:52:23.296Z,6.22
2023-03-17T07:54:52.357Z,7.88
2023-03-17T07:59:48.247Z,5.10
2023-03-17T08:02:17.804Z,6.38
2023-03-17T08:04:46.273Z,4.95
2023-03-17T08:07:15.891Z,5.28
2023-03-17T08:09:44.331Z,5.65
2023-03-17T08:12:12.458Z,4.47
2023-03-17T08:14:41.642Z,3.95
2023-03-17T08:17:09.699Z,4.32
2023-03-17T08:19:38.431Z,3.05
2023-03-17T08:22:06.944Z,3.25
2023-03-17T08:24:35.705Z,10.80
2023-03-17T08:27:04.281Z,15.52
2023-03-17T08:29:32.342Z,9.60
2023-03-17T08:32:00.205Z,5.05
2023-03-17T08:34:28.191Z,2.50
2023-03-17T08:36:56.928Z,2.95
2023-03-17T08:39:25.500Z,2.90
2023-03-17T08:41:53.914Z,3.70
2023-03-17T08:44:22.131Z,3.80
2023-03-17T08:46:51.658Z,2.75
2023-03-17T08:49:19.756Z,2.78
2023-03-17T08:51:47.724Z,2.60
2023-03-17T08:54:16.159Z,6.72
2023-03-17T08:56:44.161Z,3.55
2023-03-17T08:59:12.708Z,2.35
2023-03-17T09:01:40.616Z,3.45
2023-03-17T09:04:09.159Z,2.25
2023-03-17T09:06:38.817Z,3.28
2023-03-17T09:09:07.944Z,4.13
2023-03-17T09:11:38.099Z,3.75
2023-03-17T09:14:06.077Z,7.10
2023-03-17T09:16:34.514Z,3.95
2023-03-17T09:19:04.051Z,4.05
2023-03-17T09:21:32.245Z,2.85
2023-03-17T09:24:02.407Z,8.10
2023-03-17T09:26:30.980Z,3.53
2023-03-17T09:28:59.460Z,3.47
2023-03-17T09:31:27.494Z,3.60
2023-03-17T09:33:55.515Z,3.85
2023-03-17T09:36:24.419Z,3.70
2023-03-17T09:38:52.681Z,5.90
2023-03-17T09:41:43.514Z,4.32
2023-03-17T09:44:23.738Z,48.40
2023-03-17T09:47:01.115Z,37.50
2023-03-17T09:49:37.345Z,4.20
2023-03-17T09:52:05.649Z,13.40
2023-03-17T09:54:38.070Z,3.92
2023-03-17T09:57:18.329Z,5.95
2023-03-17T09:59:50.996Z,3.53
2023-03-17T10:02:32.859Z,3.90
2023-03-17T10:05:20.774Z,2.92
2023-03-17T10:08:28.923Z,5.85
2023-03-17T10:11:04.984Z,6.60
2023-03-17T10:13:44.534Z,20.85
2023-03-17T10:16:14.856Z,5.07
2023-03-17T10:19:02.967Z,5.97
2023-03-17T10:21:35.313Z,6.18
2023-03-17T10:24:05.634Z,5.65
2023-03-17T10:27:07.250Z,4.68
2023-03-17T10:29:35.337Z,6.35
2023-03-17T10:32:04.523Z,3.97
2023-03-17T10:37:21.456Z,4.43
2023-03-17T10:39:56.508Z,4.15
2023-03-17T10:42:30.575Z,6.07
2023-03-17T10:45:13.977Z,4.65
2023-03-17T10:47:47.425Z,3.70
2023-03-17T10:50:15.762Z,3.72
2023-03-17T10:52:46.900Z,2.78
2023-03-17T10:55:21.643Z,4.03
2023-03-17T10:58:02.558Z,3.65
2023-03-17T11:00:35.498Z,4.55
2023-03-17T11:03:16.922Z,4.93
2023-03-17T11:08:23.785Z,4.70
2023-03-17T11:10:57.174Z,4.05
2023-03-17T11:13:30.832Z,4.22
2023-03-17T11:16:22.462Z,8.60
2023-03-17T11:18:55.739Z,21.83
2023-03-17T11:21:32.724Z,4.07
2023-03-17T11:24:16.271Z,3.42
2023-03-17T11:27:01.454Z,6.20
2023-03-17T11:29:44.429Z,6.95
2023-03-17T11:32:33.932Z,5.22
2023-03-17T11:35:08.586Z,2.85
2023-03-17T11:38:01.275Z,2.97
2023-03-17T11:40:52.182Z,5.15
2023-03-17T11:43:58.024Z,4.50
2023-03-17T11:46:33.444Z,2.88
2023-03-17T11:49:10.174Z,3.53
2023-03-17T11:52:11.456Z,3.17
2023-03-17T11:54:58.994Z,3.45
2023-03-17T11:57:39.408Z,4.53
2023-03-17T12:00:34.157Z,3.08
2023-03-17T12:03:18.098Z,3.25
2023-03-17T12:05:54.904Z,4.35
2023-03-17T12:08:57.932Z,3.40
2023-03-17T12:11:30.020Z,3.42
2023-03-17T12:14:22.261Z,2.72
2023-03-17T12:17:02.641Z,2.50
2023-03-17T12:19:57.422Z,2.15
2023-03-17T12:22:33.960Z,3.20
2023-03-17T12:25:20.993Z,4.13
2023-03-17T12:27:53.515Z,3.70
2023-03-17T12:30:33.397Z,3.22
2023-03-17T12:33:16.191Z,4.00
2023-03-17T12:35:44.875Z,2.30
2023-03-17T12:38:20.082Z,2.60
2023-03-17T12:40:54.210Z,3.75
2023-03-17T12:43:34.196Z,3.20
2023-03-17T12:46:17.283Z,3.50
2023-03-17T12:48:51.109Z,3.05
2023-03-17T12:51:22.323Z,2.90
2023-03-17T12:53:52.224Z,3.35
2023-03-17T12:56:28.142Z,5.30
2023-03-17T12:59:22.377Z,7.07
2023-03-17T13:01:59.083Z,7.53
2023-03-17T13:04:33.163Z,7.22
2023-03-17T13:07:10.938Z,2.72
2023-03-17T13:09:51.085Z,2.75
2023-03-17T13:12:40.611Z,2.30
2023-03-17T13:15:48.733Z,3.22
2023-03-17T13:18:16.909Z,2.42
2023-03-17T13:20:51.670Z,4.47
2023-03-17T13:23:24.174Z,3.92
2023-03-17T13:25:54.078Z,5.45
2023-03-17T13:28:47.873Z,4.13
2023-03-17T13:31:28.602Z,8.25
2023-03-17T13:34:02.958Z,4.63
2023-03-17T13:36:37.379Z,3.83
2023-03-17T13:39:43.221Z,3.53
2023-03-17T13:42:38.420Z,4.43
2023-03-17T13:45:44.805Z,5.45
2023-03-17T13:48:33.268Z,4.63
2023-03-17T13:51:15.096Z,4.10
2023-03-17T13:53:51.219Z,4.90
2023-03-17T13:56:22.034Z,5.93
2023-03-17T13:59:02.594Z,2.90
2023-03-17T14:01:41.715Z,6.97
2023-03-17T14:04:29.309Z,13.30
2023-03-17T14:07:05.639Z,5.53
2023-03-17T14:09:36.042Z,4.72
2023-03-17T14:12:43.659Z,4.22
2023-03-17T14:15:25.631Z,6.53
2023-03-17T14:18:22.217Z,6.55
2023-03-17T14:20:55.923Z,4.75
2023-03-17T14:23:24.778Z,3.72
2023-03-17T14:25:56.301Z,3.75
2023-03-17T14:28:28.653Z,3.17
2023-03-17T14:31:03.788Z,3.95
2023-03-17T14:36:11.217Z,5.00
2023-03-17T14:38:51.420Z,3.72
2023-03-17T14:41:26.664Z,6.88
2023-03-17T14:43:59.898Z,3.33
2023-03-17T14:46:41.565Z,5.07
2023-03-17T14:49:18.030Z,5.80
2023-03-17T14:51:50.557Z,17.08
2023-03-17T14:54:32.735Z,4.68
2023-03-17T14:57:09.550Z,7.35
2023-03-17T14:59:41.402Z,4.60
2023-03-17T15:02:23.584Z,3.95
2023-03-17T15:04:58.700Z,3.03
2023-03-17T15:07:40.189Z,6.40
2023-03-17T15:10:22.607Z,4.82
2023-03-17T15:13:01.196Z,5.63
2023-03-17T15:15:33.565Z,4.82
2023-03-17T15:18:12.325Z,4.68
2023-03-17T15:20:43.996Z,3.25
2023-03-17T15:23:20.409Z,3.78
2023-03-17T15:25:56.190Z,3.33
2023-03-17T15:28:31.783Z,3.42
2023-03-17T15:31:13.092Z,3.28
2023-03-17T15:33:43.050Z,4.68
2023-03-17T15:36:31.456Z,3.75
2023-03-17T15:39:03.883Z,4.75
2023-03-17T15:41:32.482Z,6.50
2023-03-17T15:44:00.816Z,10.32
2023-03-17T15:46:31.992Z,8.25
2023-03-17T15:49:00.771Z,4.13
2023-03-17T15:51:29.146Z,5.43
2023-03-17T15:53:57.902Z,4.97
2023-03-17T15:56:26.738Z,4.95
2023-03-17T15:58:56.445Z,4.90
2023-03-17T16:01:27.780Z,4.78
2023-03-17T16:03:56.657Z,6.75
2023-03-17T16:06:25.645Z,7.43
2023-03-17T16:08:54.039Z,22.65
2023-03-17T16:11:28.980Z,12.73
2023-03-17T16:14:02.674Z,5.05
2023-03-17T16:16:38.188Z,5.10
2023-03-17T16:19:10.495Z,4.43
2023-03-17T16:21:44.195Z,6.72
2023-03-17T16:24:22.029Z,6.22
2023-03-17T16:26:52.350Z,5.60
2023-03-17T16:29:22.039Z,7.40
2023-03-17T16:31:51.536Z,8.10
2023-03-17T16:34:24.035Z,8.75
2023-03-17T16:36:54.572Z,11.70
2023-03-17T16:39:24.038Z,10.98
2023-03-17T16:41:53.941Z,11.68
2023-03-17T16:44:23.839Z,14.05
2023-03-17T16:46:52.729Z,12.63
2023-03-17T16:49:25.470Z,12.82
2023-03-17T16:51:54.139Z,11.98
2023-03-17T16:54:22.444Z,9.20
2023-03-17T16:56:51.429Z,11.65
2023-03-17T16:59:22.326Z,11.65
2023-03-17T17:01:51.433Z,12.88
2023-03-17T17:12:27.635Z,7.70
2023-03-17T17:23:23.396Z,11.05
2023-03-17T17:34:03.714Z,11.20
2023-03-17T17:47:24.835Z,7.03
2023-03-17T17:50:03.870Z,8.35
2023-03-17T17:57:58.584Z,7.53
2023-03-17T18:27:44.436Z,5.97
2023-03-17T18:52:13.401Z,6.43
2023-03-17T19:08:23.076Z,13.48
2023-03-17T19:21:42.220Z,35.08
2023-03-17T19:35:02.052Z,25.52
2023-03-17T20:07:19.009Z,8.52
2023-03-17T20:23:30.211Z,19.20
2023-03-17T21:03:58.381Z,22.15
2023-03-17T21:14:29.257Z,24.52
2023-03-17T21:36:03.689Z,14.40
2023-03-17T21:38:32.618Z,9.23
2023-03-17T21:41:38.069Z,15.90
2023-03-17T21:44:08.770Z,14.63
2023-03-17T21:46:37.429Z,18.95
2023-03-17T21:49:05.960Z,17.80
2023-03-17T21:51:35.228Z,18.80
2023-03-17T21:54:04.214Z,19.85
2023-03-17T21:56:32.678Z,18.58
2023-03-17T21:59:01.249Z,21.17
2023-03-17T22:01:29.542Z,17.02
2023-03-17T22:03:57.915Z,17.13
2023-03-17T22:06:27.788Z,17.65
2023-03-17T22:08:56.083Z,21.05
2023-03-17T22:11:24.165Z,20.75
2023-03-17T22:13:52.524Z,33.80
2023-03-17T22:16:21.765Z,31.02
2023-03-17T22:18:49.712Z,31.70
2023-03-17T22:21:18.280Z,32.00
2023-03-17T22:23:46.538Z,32.70
2023-03-17T22:26:17.535Z,17.00
2023-03-17T22:28:48.784Z,17.67
2023-03-17T22:31:20.872Z,18.70
2023-03-17T22:33:50.664Z,19.92
2023-03-17T22:36:19.249Z,29.73
2023-03-17T22:38:47.733Z,22.70
2023-03-17T22:41:21.851Z,22.25
2023-03-17T22:43:50.904Z,20.63
2023-03-17T22:46:19.888Z,20.23
2023-03-17T22:48:48.153Z,16.48
2023-03-17T22:51:21.677Z,15.13
2023-03-17T22:53:51.095Z,18.85
2023-03-17T22:56:19.972Z,21.45
2023-03-17T22:58:48.201Z,24.08
2023-03-17T23:01:18.171Z,17.67
2023-03-17T23:03:46.491Z,11.82
2023-03-17T23:06:14.969Z,12.82
2023-03-17T23:08:44.340Z,14.65
2023-03-17T23:11:18.628Z,11.43
2023-03-17T23:13:47.847Z,9.73
2023-03-17T23:16:16.498Z,9.48
2023-03-17T23:18:46.749Z,14.00
2023-03-17T23:21:22.065Z,16.92
2023-03-17T23:23:50.367Z,7.43
2023-03-17T23:26:18.656Z,4.75
2023-03-17T23:28:46.712Z,6.18
2023-03-17T23:31:16.931Z,7.57
2023-03-17T23:33:47.031Z,11.05
2023-03-17T23:36:17.264Z,8.65
2023-03-17T23:38:46.329Z,13.10
2023-03-17T23:41:15.519Z,8.52
2023-03-17T23:43:44.263Z,12.82
2023-03-17T23:46:13.696Z,13.02
2023-03-17T23:48:43.077Z,10.60
2023-03-17T23:53:41.965Z,5.43
2023-03-17T23:56:11.637Z,4.90
2023-03-17T23:58:43.653Z,4.85
